Time;durP1;ratioP1;P1;durP2;ratioP2;P2;SDS_P1;SDS_P2;PMS_P1;PMS_P2;Temp;Humidity;BMP_temperature;BMP_pressure;BME280_temperature;BME280_humidity;BME280_pressure;Samples;Min_cycle;Max_cycle;Signal;HPM_P1;HPM_P2
2024/02/14 00:02:39;;;;;;;3.00;2.80;;;15.30;76.70;;;;;;4071177;29;20066;-54
2024/02/14 00:05:20;;;;;;;3.05;2.58;;;15.30;76.80;;;;;;4070716;28;20322;-54
2024/02/14 00:08:03;;;;;;;4.78;2.83;;;15.30;77.00;;;;;;4089155;28;20054;-52
2024/02/14 00:10:44;;;;;;;6.25;2.80;;;15.30;77.00;;;;;;4089500;28;20053;-51
2024/02/14 00:13:25;;;;;;;3.13;2.50;;;15.30;77.10;;;;;;4078298;28;20066;-52
2024/02/14 00:16:08;;;;;;;3.53;2.60;;;15.30;77.20;;;;;;4090583;28;20126;-54
2024/02/14 00:18:49;;;;;;;2.83;2.63;;;15.30;77.40;;;;;;4089223;28;20058;-55
2024/02/14 00:21:31;;;;;;;3.50;2.70;;;15.20;77.20;;;;;;4088311;28;20483;-52
2024/02/14 00:24:13;;;;;;;4.10;3.10;;;15.30;77.20;;;;;;4089725;28;20081;-53
2024/02/14 00:26:55;;;;;;;3.75;3.20;;;15.20;77.10;;;;;;4090120;28;20110;-51
2024/02/14 00:29:37;;;;;;;3.38;3.10;;;15.30;77.30;;;;;;4089498;28;20058;-52
2024/02/14 00:32:18;;;;;;;3.38;3.00;;;15.20;77.50;;;;;;4076981;28;20136;-49
2024/02/14 00:35:07;;;;;;;4.97;3.40;;;15.20;77.60;;;;;;4078074;28;20126;-52
2024/02/14 00:37:48;;;;;;;3.60;2.95;;;15.20;77.80;;;;;;4089920;28;20066;-55
2024/02/14 00:40:32;;;;;;;4.55;3.33;;;15.10;77.50;;;;;;4074378;29;20495;-53
2024/02/14 00:43:13;;;;;;;3.33;3.03;;;15.10;77.70;;;;;;4078535;28;20093;-54
2024/02/14 00:45:56;;;;;;;3.67;2.83;;;15.10;78.10;;;;;;4090209;28;20086;-53
2024/02/14 00:48:37;;;;;;;3.75;3.13;;;15.10;78.20;;;;;;4078407;28;20062;-53
2024/02/14 00:51:18;;;;;;;3.53;3.22;;;15.10;78.30;;;;;;4088133;28;20069;-51
2024/02/14 00:53:59;;;;;;;3.20;2.88;;;15.10;78.40;;;;;;4088656;28;20186;-54
2024/02/14 00:56:42;;;;;;;3.60;3.40;;;15.10;78.50;;;;;;4086825;28;20093;-55
2024/02/14 00:59:24;;;;;;;4.72;2.72;;;15.10;78.60;;;;;;4089068;28;20519;-53
2024/02/14 01:02:06;;;;;;;2.70;2.50;;;15.10;78.60;;;;;;4088256;28;20443;-54
2024/02/14 01:04:47;;;;;;;3.70;2.83;;;15.10;78.70;;;;;;4088013;28;20182;-53
2024/02/14 01:07:28;;;;;;;3.28;2.90;;;15.10;79.30;;;;;;4089002;28;20512;-53
2024/02/14 01:10:10;;;;;;;3.47;2.88;;;15.10;79.60;;;;;;4077021;28;20145;-50
2024/02/14 01:12:52;;;;;;;;;;;15.20;79.80;;;;;;4088568;28;20145;-54
2024/02/14 01:15:33;;;;;;;3.28;2.95;;;15.20;79.80;;;;;;4089465;28;19937;-52
2024/02/14 01:18:14;;;;;;;3.10;2.80;;;15.20;80.20;;;;;;4089421;28;20541;-53
2024/02/14 01:20:55;;;;;;;2.97;2.80;;;15.20;80.00;;;;;;4066040;28;20051;-53
2024/02/14 01:23:36;;;;;;;3.65;3.22;;;15.20;80.00;;;;;;4089735;28;20155;-53
2024/02/14 01:26:17;;;;;;;3.17;2.80;;;15.30;79.90;;;;;;4089566;28;20512;-52
2024/02/14 01:29:00;;;;;;;3.03;2.70;;;15.30;79.70;;;;;;4088914;28;20062;-54
2024/02/14 01:31:42;;;;;;;3.47;3.08;;;15.30;79.50;;;;;;4089361;28;20058;-51
2024/02/14 01:34:23;;;;;;;3.28;2.63;;;15.30;79.50;;;;;;4087583;28;20125;-51
2024/02/14 01:37:04;;;;;;;;;;;15.30;79.80;;;;;;4089049;28;20223;-55
2024/02/14 01:39:45;;;;;;;2.55;2.45;;;15.30;79.80;;;;;;4088439;28;20386;-52
2024/02/14 01:42:27;;;;;;;3.13;2.92;;;15.30;80.40;;;;;;4075049;28;20101;-50
2024/02/14 01:45:12;;;;;;;2.60;2.50;;;15.40;80.50;;;;;;4088714;28;20508;-52
2024/02/14 01:48:02;;;;;;;3.08;2.20;;;15.50;80.10;;;;;;4071782;29;20146;-51
2024/02/14 01:50:43;;;;;;;3.42;2.67;;;15.50;79.70;;;;;;4072446;29;20058;-55
2024/02/14 01:53:25;;;;;;;2.60;2.50;;;15.60;79.60;;;;;;4079839;28;20105;-53
2024/02/14 01:56:08;;;;;;;2.45;2.35;;;15.60;79.30;;;;;;4087259;28;20161;-55
2024/02/14 01:58:50;;;;;;;5.18;2.50;;;15.60;79.20;;;;;;4087169;28;20108;-53
2024/02/14 02:01:33;;;;;;;;;;;15.70;79.00;;;;;;4089327;28;20762;-53
2024/02/14 02:04:14;;;;;;;2.28;2.08;;;15.70;79.20;;;;;;4076111;28;20066;-52
2024/02/14 02:06:56;;;;;;;2.15;2.05;;;15.70;79.30;;;;;;4073319;29;20098;-52
2024/02/14 02:09:37;;;;;;;2.13;2.03;;;15.70;79.20;;;;;;4073185;29;20693;-53
2024/02/14 02:12:19;;;;;;;2.20;2.00;;;15.70;79.40;;;;;;4074016;29;20075;-52
2024/02/14 02:15:23;;;;;;;2.25;2.15;;;15.70;79.40;;;;;;4078219;28;20062;-53
2024/02/14 02:18:26;;;;;;;2.03;1.92;;;15.70;79.40;;;;;;4077868;28;20066;-53
2024/02/14 02:21:27;;;;;;;1.90;1.80;;;15.70;79.60;;;;;;4086630;28;20176;-52
2024/02/14 02:24:10;;;;;;;1.90;1.80;;;15.70;79.80;;;;;;4088762;28;20435;-53
2024/02/14 02:26:51;;;;;;;1.75;1.65;;;15.70;79.60;;;;;;4088636;28;20057;-51
2024/02/14 02:29:52;;;;;;;1.95;1.77;;;15.80;79.50;;;;;;4078751;28;20063;-52
2024/02/14 02:32:33;;;;;;;1.90;1.77;;;15.80;79.20;;;;;;4087591;28;20055;-50
2024/02/14 02:35:14;;;;;;;1.55;1.40;;;15.80;79.30;;;;;;4087967;28;20098;-53
2024/02/14 02:38:15;;;;;;;1.60;1.50;;;15.80;79.30;;;;;;4071767;29;20078;-53
2024/02/14 02:41:17;;;;;;;1.90;1.80;;;15.80;79.30;;;;;;4072474;28;20063;-49
2024/02/14 02:44:18;;;;;;;1.98;1.55;;;15.90;79.30;;;;;;4071652;28;20063;-51
2024/02/14 02:47:18;;;;;;;1.30;1.30;;;15.90;79.20;;;;;;4085735;28;20058;-52
2024/02/14 02:50:19;;;;;;;1.73;1.63;;;16.00;79.40;;;;;;4086980;28;20062;-53
2024/02/14 02:53:21;;;;;;;1.55;1.50;;;16.00;79.00;;;;;;4087202;28;20322;-53
2024/02/14 02:56:27;;;;;;;1.13;1.13;;;16.00;78.90;;;;;;4086774;28;20085;-51
2024/02/14 02:59:08;;;;;;;1.38;1.38;;;16.00;78.80;;;;;;4076526;28;20063;-53
2024/02/14 03:01:49;;;;;;;1.30;1.30;;;16.00;78.80;;;;;;4087295;28;20050;-50
2024/02/14 03:04:50;;;;;;;1.50;1.40;;;16.00;79.00;;;;;;4088231;28;20069;-50
2024/02/14 03:07:52;;;;;;;1.42;1.40;;;16.00;79.00;;;;;;4072211;29;20055;-51
2024/02/14 03:10:53;;;;;;;1.80;1.10;;;16.00;78.90;;;;;;4071919;29;20063;-50
2024/02/14 03:13:55;;;;;;;1.35;1.25;;;16.10;79.00;;;;;;4075991;28;20153;-49
2024/02/14 03:16:59;;;;;;;1.15;1.15;;;16.10;79.70;;;;;;4081051;28;20082;-51
2024/02/14 03:19:41;;;;;;;1.60;1.50;;;16.10;78.80;;;;;;4084194;28;20054;-50
2024/02/14 03:22:22;;;;;;;1.30;1.30;;;16.20;78.70;;;;;;4091788;28;20062;-52
2024/02/14 03:25:03;;;;;;;1.25;1.25;;;16.20;78.50;;;;;;4091315;28;20134;-51
2024/02/14 03:27:47;;;;;;;1.08;1.08;;;16.20;79.30;;;;;;4080197;28;20058;-55
2024/02/14 03:30:29;;;;;;;1.15;1.15;;;16.20;78.30;;;;;;4078138;28;20563;-50
2024/02/14 03:33:10;;;;;;;1.38;1.27;;;16.30;78.20;;;;;;4091234;28;20054;-52
2024/02/14 03:35:51;;;;;;;1.10;1.10;;;16.20;78.20;;;;;;4091839;28;20491;-53
2024/02/14 03:38:32;;;;;;;1.10;1.10;;;16.20;78.30;;;;;;4091042;28;20412;-49
2024/02/14 03:41:14;;;;;;;0.95;0.95;;;16.30;78.40;;;;;;4091386;28;20062;-50
2024/02/14 03:43:58;;;;;;;1.15;1.15;;;16.30;78.20;;;;;;4075630;29;20067;-53
2024/02/14 03:46:40;;;;;;;1.08;1.08;;;16.30;78.10;;;;;;4075720;29;20063;-54
2024/02/14 03:49:21;;;;;;;1.10;1.10;;;16.30;78.20;;;;;;4075697;29;20062;-49
2024/02/14 03:52:08;;;;;;;1.30;1.30;;;16.20;78.20;;;;;;4075382;29;20118;-39
2024/02/14 03:54:50;;;;;;;1.00;1.00;;;16.20;78.40;;;;;;4094766;28;20214;-53
2024/02/14 03:57:30;;;;;;;1.08;1.08;;;16.30;78.40;;;;;;4090876;28;20126;-52
2024/02/14 04:00:12;;;;;;;1.20;1.20;;;16.30;78.30;;;;;;4091188;29;20062;-53
2024/02/14 04:02:58;;;;;;;1.02;1.02;;;16.30;78.10;;;;;;4079328;28;20499;-53
2024/02/14 04:05:40;;;;;;;0.90;0.90;;;16.40;78.20;;;;;;4090130;28;20142;-51
2024/02/14 04:08:21;;;;;;;;;;;16.30;78.20;;;;;;4075839;29;20054;-54
2024/02/14 04:11:03;;;;;;;1.15;0.88;;;16.30;78.40;;;;;;4075383;29;20276;-50
2024/02/14 04:13:44;;;;;;;0.90;0.90;;;16.30;78.70;;;;;;4074159;29;20122;-53
2024/02/14 04:16:25;;;;;;;1.10;1.10;;;16.30;79.30;;;;;;4075295;29;20062;-51
2024/02/14 04:19:10;;;;;;;0.90;0.90;;;16.30;79.10;;;;;;4073913;28;20058;-49
2024/02/14 04:21:52;;;;;;;0.80;0.80;;;16.30;78.20;;;;;;4090358;28;20129;-54
2024/02/14 04:24:34;;;;;;;1.00;1.00;;;16.30;78.20;;;;;;4089754;28;20194;-55
2024/02/14 04:27:15;;;;;;;1.00;1.00;;;16.30;78.20;;;;;;4089548;28;20561;-53
2024/02/14 04:29:56;;;;;;;0.85;0.85;;;16.20;78.40;;;;;;4090878;28;20178;-55
2024/02/14 04:32:39;;;;;;;1.00;1.00;;;16.20;78.60;;;;;;4078068;29;20093;-50
2024/02/14 04:35:22;;;;;;;0.85;0.85;;;16.20;79.00;;;;;;4090117;28;20739;-52
2024/02/14 04:38:03;;;;;;;7.15;1.83;;;16.20;78.90;;;;;;4078301;28;20058;-53
2024/02/14 04:40:44;;;;;;;0.90;0.90;;;16.30;78.90;;;;;;4090055;28;20554;-53
2024/02/14 04:43:25;;;;;;;0.82;0.82;;;16.30;78.80;;;;;;4089985;28;20113;-51
2024/02/14 04:46:07;;;;;;;0.80;0.80;;;16.30;78.70;;;;;;4090058;28;20058;-38
2024/02/14 04:48:47;;;;;;;0.93;0.93;;;16.40;78.70;;;;;;4090546;28;20606;-39
2024/02/14 04:51:30;;;;;;;1.00;1.00;;;16.40;78.40;;;;;;4089868;28;20507;-38
2024/02/14 04:54:13;;;;;;;0.82;0.82;;;16.40;78.30;;;;;;4078168;28;20085;-39
2024/02/14 04:56:54;;;;;;;0.93;0.93;;;16.40;78.40;;;;;;4079479;28;20054;-38
2024/02/14 04:59:37;;;;;;;0.95;0.85;;;16.40;78.40;;;;;;4085325;28;20053;-38
2024/02/14 05:02:18;;;;;;;0.75;0.75;;;16.50;78.40;;;;;;4089948;28;20125;-38
2024/02/14 05:04:58;;;;;;;1.85;0.90;;;16.50;78.40;;;;;;4090415;28;20408;-39
2024/02/14 05:07:41;;;;;;;0.95;0.95;;;16.50;78.20;;;;;;4090386;28;20093;-38
2024/02/14 05:10:22;;;;;;;1.00;1.00;;;16.50;78.30;;;;;;4090549;28;20853;-38
2024/02/14 05:13:03;;;;;;;0.90;0.90;;;16.50;78.10;;;;;;4070608;28;20054;-38
2024/02/14 05:15:44;;;;;;;1.90;0.95;;;16.50;78.10;;;;;;4090377;28;20471;-38
2024/02/14 05:18:25;;;;;;;0.98;0.98;;;16.50;78.10;;;;;;4086689;28;20614;-38
2024/02/14 05:21:07;;;;;;;0.88;0.88;;;16.50;78.20;;;;;;4090086;28;20062;-38
2024/02/14 05:23:50;;;;;;;1.00;1.00;;;16.60;78.30;;;;;;4089674;28;20097;-38
2024/02/14 05:26:31;;;;;;;0.90;0.90;;;16.60;78.10;;;;;;4089083;28;20050;-39
2024/02/14 05:29:13;;;;;;;1.10;0.90;;;16.60;77.90;;;;;;4089467;29;20413;-39
2024/02/14 05:31:56;;;;;;;0.80;0.80;;;16.60;78.00;;;;;;4089508;28;20046;-39
2024/02/14 05:34:37;;;;;;;1.10;1.10;;;16.70;77.90;;;;;;4089589;28;20082;-39
2024/02/14 05:37:17;;;;;;;0.90;0.90;;;16.70;77.80;;;;;;4089251;28;20054;-39
2024/02/14 05:40:00;;;;;;;0.70;0.70;;;16.70;77.80;;;;;;4089764;28;20054;-38
2024/02/14 05:42:43;;;;;;;0.90;0.90;;;16.70;77.80;;;;;;4089135;28;20066;-38
2024/02/14 05:45:27;;;;;;;0.90;0.90;;;16.60;77.90;;;;;;4089700;28;20062;-39
2024/02/14 05:48:08;;;;;;;0.80;0.80;;;16.60;78.00;;;;;;4073550;29;20079;-38
2024/02/14 05:50:49;;;;;;;1.00;1.00;;;16.50;78.30;;;;;;4073423;29;20148;-39
2024/02/14 05:53:31;;;;;;;1.08;1.08;;;16.50;78.60;;;;;;4073397;29;20106;-38
2024/02/14 05:56:13;;;;;;;0.85;0.85;;;16.40;78.90;;;;;;4079995;29;20062;-38
2024/02/14 05:58:54;;;;;;;0.85;0.85;;;16.50;79.10;;;;;;4089297;28;20050;-38
2024/02/14 06:01:35;;;;;;;0.88;0.88;;;16.50;78.70;;;;;;4088820;29;20085;-38
2024/02/14 06:04:16;;;;;;;0.77;0.77;;;16.60;78.50;;;;;;4088433;28;20057;-39
2024/02/14 06:06:57;;;;;;;1.00;1.00;;;16.60;78.40;;;;;;4087350;28;20051;-55
2024/02/14 06:09:38;;;;;;;0.90;0.90;;;16.60;78.30;;;;;;4061042;29;20054;-50
2024/02/14 06:12:21;;;;;;;1.00;1.00;;;16.60;78.10;;;;;;4085764;28;20058;-54
2024/02/14 06:15:02;;;;;;;1.00;1.00;;;16.60;78.50;;;;;;4089200;28;20058;-52
2024/02/14 06:17:47;;;;;;;1.05;1.05;;;16.60;78.80;;;;;;4075676;28;20047;-49
2024/02/14 06:20:28;;;;;;;2.58;1.10;;;16.60;78.80;;;;;;4089062;28;20519;-51
2024/02/14 06:23:09;;;;;;;1.27;1.27;;;16.60;78.70;;;;;;4082239;28;20047;-49
2024/02/14 06:25:50;;;;;;;1.02;1.02;;;16.70;78.60;;;;;;4089348;28;20070;-52
2024/02/14 06:28:33;;;;;;;1.05;1.05;;;16.70;78.40;;;;;;4084837;28;20050;-51
2024/02/14 06:31:14;;;;;;;1.50;1.40;;;16.70;78.30;;;;;;4082518;28;20046;-52
2024/02/14 06:33:55;;;;;;;1.40;1.30;;;16.80;78.20;;;;;;4087339;28;20523;-53
2024/02/14 06:36:36;;;;;;;1.70;1.40;;;16.80;78.20;;;;;;4069435;29;20058;-53
2024/02/14 06:39:17;;;;;;;1.08;1.08;;;16.70;78.10;;;;;;4072670;29;20078;-55
2024/02/14 06:41:58;;;;;;;1.60;1.50;;;16.70;78.30;;;;;;4072087;28;20142;-54
2024/02/14 06:44:41;;;;;;;1.33;1.33;;;16.70;78.60;;;;;;4073096;28;20066;-49
2024/02/14 06:47:22;;;;;;;1.20;1.20;;;16.60;79.00;;;;;;4083937;28;20105;-54
2024/02/14 06:50:04;;;;;;;1.63;1.52;;;16.60;79.60;;;;;;4088061;28;20526;-51
2024/02/14 06:52:45;;;;;;;2.45;1.33;;;16.70;79.70;;;;;;4089790;28;20062;-50
2024/02/14 06:55:26;;;;;;;2.58;1.27;;;16.70;79.30;;;;;;4063776;29;20531;-54
2024/02/14 06:58:08;;;;;;;2.50;1.77;;;16.80;79.00;;;;;;4082003;28;20117;-53
2024/02/14 07:00:50;;;;;;;3.25;1.33;;;16.80;78.70;;;;;;4091242;28;20531;-54
2024/02/14 07:03:31;;;;;;;4.00;1.80;;;16.80;78.10;;;;;;4085924;28;20179;-50
2024/02/14 07:06:12;;;;;;;1.98;1.63;;;16.90;77.50;;;;;;4078700;28;20674;-49
2024/02/14 07:08:53;;;;;;;5.40;2.05;;;16.90;77.30;;;;;;4090665;28;20050;-55
2024/02/14 07:11:34;;;;;;;6.45;2.83;;;16.90;77.40;;;;;;4089953;28;20520;-53
2024/02/14 07:14:15;;;;;;;11.75;2.20;;;16.90;78.10;;;;;;4078474;28;20207;-53
2024/02/14 07:16:57;;;;;;;8.35;2.60;;;16.90;78.80;;;;;;4091667;28;20054;-53
2024/02/14 07:19:38;;;;;;;9.93;2.78;;;16.80;79.20;;;;;;4090822;28;20062;-51
2024/02/14 07:22:20;;;;;;;5.00;2.50;;;16.80;79.40;;;;;;4086447;28;20102;-53
2024/02/14 07:25:00;;;;;;;8.52;2.72;;;16.70;79.80;;;;;;4091593;28;20062;-52
2024/02/14 07:27:42;;;;;;;10.35;3.10;;;16.70;80.30;;;;;;4087204;28;20083;-52
2024/02/14 07:30:23;;;;;;;11.88;2.83;;;16.70;80.30;;;;;;4090434;28;20134;-52
2024/02/14 07:33:05;;;;;;;9.00;3.15;;;16.80;80.00;;;;;;4089315;28;20050;-54
2024/02/14 07:35:47;;;;;;;11.40;3.00;;;16.80;79.60;;;;;;4088661;28;20512;-51
2024/02/14 07:38:28;;;;;;;8.05;2.70;;;16.90;79.40;;;;;;4067043;28;20058;-53
2024/02/14 07:41:09;;;;;;;10.85;2.83;;;16.90;79.10;;;;;;4089995;28;20118;-50
2024/02/14 07:44:00;;;;;;;11.70;2.58;;;16.90;78.90;;;;;;4086717;28;20519;-52
2024/02/14 07:46:40;;;;;;;18.20;3.85;;;16.90;78.70;;;;;;4093419;28;20058;-53
2024/02/14 07:49:23;;;;;;;12.43;3.40;;;17.00;78.70;;;;;;4081140;28;20058;-54
2024/02/14 07:52:05;;;;;;;11.48;3.35;;;16.90;78.60;;;;;;4091064;28;20130;-50
2024/02/14 07:54:45;;;;;;;10.50;3.03;;;16.90;78.50;;;;;;4091054;28;20062;-37
2024/02/14 07:57:27;;;;;;;11.77;3.08;;;16.90;78.70;;;;;;4079474;28;20117;-39
2024/02/14 08:00:10;;;;;;;16.20;3.40;;;16.90;79.30;;;;;;4081120;28;20086;-37
2024/02/14 08:02:51;;;;;;;14.65;3.08;;;17.00;80.00;;;;;;4088584;28;20062;-38
2024/02/14 08:05:33;;;;;;;15.18;2.83;;;16.90;80.40;;;;;;4089738;28;20054;-38
2024/02/14 08:08:14;;;;;;;18.15;3.85;;;17.00;80.40;;;;;;4074884;29;20058;-37
2024/02/14 08:10:55;;;;;;;19.15;4.53;;;17.00;80.30;;;;;;4075023;29;20053;-38
2024/02/14 08:13:36;;;;;;;15.25;3.47;;;16.90;80.40;;;;;;4074894;29;20062;-37
2024/02/14 08:16:18;;;;;;;16.60;4.22;;;16.80;80.50;;;;;;4096641;28;20054;-37
2024/02/14 08:18:59;;;;;;;14.35;3.47;;;16.80;80.90;;;;;;4091234;28;20050;-37
2024/02/14 08:21:42;;;;;;;17.90;3.33;;;16.80;81.40;;;;;;4090839;28;20109;-37
2024/02/14 08:24:23;;;;;;;14.95;3.88;;;16.80;81.30;;;;;;4078318;28;20137;-37
2024/02/14 08:27:06;;;;;;;20.55;4.28;;;16.90;80.90;;;;;;4090646;28;20127;-38
2024/02/14 08:29:47;;;;;;;17.52;3.25;;;16.90;80.70;;;;;;4090191;28;20058;-37
2024/02/14 08:32:28;;;;;;;16.33;4.95;;;16.90;80.50;;;;;;4091259;28;20408;-38
2024/02/14 08:35:11;;;;;;;20.90;4.95;;;16.90;80.70;;;;;;4075593;29;20184;-37
2024/02/14 08:37:53;;;;;;;23.15;6.00;;;16.80;80.70;;;;;;4075008;29;20087;-38
2024/02/14 08:40:36;;;;;;;17.25;4.65;;;16.80;80.80;;;;;;4075130;29;20505;-38
2024/02/14 08:43:17;;;;;;;20.30;4.10;;;16.80;81.30;;;;;;4074627;29;20059;-38
2024/02/14 08:45:58;;;;;;;19.58;4.10;;;16.70;81.50;;;;;;4074392;29;20059;-38
2024/02/14 08:48:41;;;;;;;18.27;4.60;;;16.80;81.50;;;;;;4083309;28;20059;-38
2024/02/14 08:51:23;;;;;;;18.45;4.38;;;16.80;81.40;;;;;;4089769;28;20070;-38
2024/02/14 08:54:06;;;;;;;20.83;4.22;;;16.90;81.20;;;;;;4082739;28;20066;-37
2024/02/14 08:56:48;;;;;;;19.08;4.35;;;16.90;80.90;;;;;;4089954;28;20062;-37
2024/02/14 08:59:29;;;;;;;13.27;4.57;;;16.90;80.80;;;;;;4089452;28;20062;-37
2024/02/14 09:02:11;;;;;;;16.73;4.00;;;16.90;81.00;;;;;;4089120;28;20062;-38
2024/02/14 09:04:52;;;;;;;;;;;17.00;80.80;;;;;;4078039;28;20058;-38
2024/02/14 09:07:33;;;;;;;11.88;3.42;;;17.00;80.50;;;;;;4089983;28;19929;-38
2024/02/14 09:10:16;;;;;;;8.40;3.55;;;17.00;80.30;;;;;;4089164;28;20501;-37
2024/02/14 09:12:57;;;;;;;14.35;4.28;;;17.00;80.30;;;;;;4089440;28;20049;-37
2024/02/14 09:15:38;;;;;;;11.43;3.78;;;17.00;80.30;;;;;;4089812;28;20073;-38
2024/02/14 09:18:19;;;;;;;14.50;3.33;;;16.90;80.60;;;;;;4089915;28;20062;-37
2024/02/14 09:21:01;;;;;;;8.68;3.00;;;16.90;80.80;;;;;;4089591;28;20090;-37
2024/02/14 09:23:45;;;;;;;8.38;3.25;;;16.90;80.90;;;;;;4088725;28;20234;-37
2024/02/14 09:26:28;;;;;;;7.18;3.03;;;17.00;80.70;;;;;;4089680;28;20062;-37
2024/02/14 09:29:10;;;;;;;8.77;3.10;;;17.00;80.50;;;;;;4089598;28;20058;-37
2024/02/14 09:31:51;;;;;;;6.25;3.15;;;17.10;80.50;;;;;;4088537;28;20199;-37
2024/02/14 09:34:33;;;;;;;8.05;3.45;;;17.00;80.40;;;;;;4088943;28;20062;-38
2024/02/14 09:37:14;;;;;;;5.97;3.13;;;17.00;80.60;;;;;;4088691;28;20066;-38
2024/02/14 09:39:55;;;;;;;9.50;3.70;;;16.90;80.60;;;;;;4089040;28;20054;-37
2024/02/14 09:42:43;;;;;;;11.85;4.05;;;16.80;80.80;;;;;;4088691;28;20070;-38
2024/02/14 09:45:26;;;;;;;11.88;3.70;;;16.80;81.30;;;;;;4088747;28;20077;-38
2024/02/14 09:48:09;;;;;;;10.65;3.60;;;16.80;81.30;;;;;;4088437;28;20054;-37
2024/02/14 09:50:50;;;;;;;9.27;3.88;;;16.90;81.20;;;;;;4088308;28;20050;-38
2024/02/14 09:53:33;;;;;;;9.13;3.45;;;16.90;81.00;;;;;;4085817;28;20061;-38
2024/02/14 09:56:18;;;;;;;11.02;3.45;;;17.00;80.80;;;;;;4088992;28;20050;-38
2024/02/14 09:59:02;;;;;;;10.23;3.33;;;17.00;80.80;;;;;;4087794;28;20121;-38
2024/02/14 10:01:45;;;;;;;7.03;3.42;;;17.00;81.00;;;;;;4088748;28;20093;-38
2024/02/14 10:04:26;;;;;;;6.45;2.45;;;17.00;80.90;;;;;;4088283;28;20054;-37
2024/02/14 10:07:08;;;;;;;7.82;2.97;;;17.10;80.70;;;;;;4088658;28;20058;-37
2024/02/14 10:09:50;;;;;;;10.60;3.38;;;17.10;80.50;;;;;;4088422;28;20125;-38
2024/02/14 10:12:30;;;;;;;11.38;3.58;;;17.10;80.50;;;;;;4088473;28;20074;-37
2024/02/14 10:15:14;;;;;;;5.65;2.47;;;17.00;80.60;;;;;;4088995;28;20101;-37
2024/02/14 10:17:55;;;;;;;6.60;2.83;;;17.00;81.60;;;;;;4089062;28;20377;-37
2024/02/14 10:20:40;;;;;;;6.32;2.50;;;16.90;81.00;;;;;;4089266;28;20057;-36
2024/02/14 10:23:22;;;;;;;6.75;2.65;;;16.80;81.20;;;;;;4071664;28;20388;-38
2024/02/14 10:26:03;;;;;;;6.35;2.30;;;16.80;81.50;;;;;;4088749;28;20061;-37
2024/02/14 10:28:44;;;;;;;6.57;2.72;;;16.80;81.60;;;;;;4087798;28;20105;-37
2024/02/14 10:31:30;;;;;;;5.90;2.65;;;16.90;81.40;;;;;;4073181;28;20103;-37
2024/02/14 10:34:12;;;;;;;6.25;2.75;;;17.00;81.20;;;;;;4082789;28;20062;-49
2024/02/14 10:36:54;;;;;;;7.82;3.35;;;17.00;80.90;;;;;;4099158;28;20133;-51
2024/02/14 10:39:38;;;;;;;4.82;3.10;;;17.10;80.80;;;;;;4088849;28;20058;-48
2024/02/14 10:42:20;;;;;;;8.02;3.38;;;17.00;80.50;;;;;;4088271;28;20054;-38
2024/02/14 10:45:01;;;;;;;6.13;2.83;;;17.00;80.50;;;;;;4076763;28;20582;-38
2024/02/14 10:47:48;;;;;;;9.30;3.60;;;17.10;80.60;;;;;;4088183;28;20098;-37
2024/02/14 10:50:34;;;;;;;10.57;3.78;;;17.00;80.80;;;;;;4088773;28;20070;-38
2024/02/14 10:53:16;;;;;;;5.85;3.33;;;17.00;81.10;;;;;;4080702;28;20417;-38
2024/02/14 10:55:59;;;;;;;4.68;2.70;;;16.90;81.40;;;;;;4088255;28;20609;-37
2024/02/14 10:58:42;;;;;;;4.30;2.80;;;16.90;81.70;;;;;;4088746;28;20066;-38
2024/02/14 11:01:26;;;;;;;4.60;2.13;;;16.90;81.60;;;;;;4087866;28;20050;-38
2024/02/14 11:04:08;;;;;;;3.03;2.10;;;16.90;81.40;;;;;;4075315;28;20066;-38
2024/02/14 11:06:53;;;;;;;4.45;1.83;;;17.00;81.40;;;;;;4088176;28;20054;-49
2024/02/14 11:09:36;;;;;;;4.88;1.90;;;17.00;81.10;;;;;;4088517;28;20062;-54
2024/02/14 11:12:24;;;;;;;2.22;1.52;;;17.10;80.80;;;;;;4088506;28;20062;-51
2024/02/14 11:15:11;;;;;;;3.33;1.65;;;17.20;81.40;;;;;;4088827;28;20082;-52
2024/02/14 11:18:04;;;;;;;2.33;1.67;;;17.20;80.40;;;;;;4088569;28;20054;-53
2024/02/14 11:20:49;;;;;;;1.70;1.60;;;17.20;80.30;;;;;;4087596;28;20408;-49
2024/02/14 11:23:32;;;;;;;2.08;1.77;;;17.20;80.40;;;;;;4088541;28;20122;-52
2024/02/14 11:26:17;;;;;;;2.35;1.60;;;17.10;80.40;;;;;;4088526;28;20058;-50
2024/02/14 11:29:02;;;;;;;1.42;1.30;;;17.10;80.80;;;;;;4089138;28;20054;-48
2024/02/14 11:31:43;;;;;;;1.40;1.30;;;17.10;80.80;;;;;;4088661;28;20073;-54
2024/02/14 11:34:24;;;;;;;2.17;1.70;;;17.10;80.70;;;;;;4088777;28;20523;-53
2024/02/14 11:37:07;;;;;;;1.95;1.75;;;17.20;80.50;;;;;;4090487;28;20054;-54
2024/02/14 11:39:47;;;;;;;2.22;2.05;;;17.20;80.40;;;;;;4091349;28;20050;-51
2024/02/14 11:42:28;;;;;;;3.08;2.70;;;17.20;80.50;;;;;;4090941;28;20054;-52
2024/02/14 11:45:10;;;;;;;2.25;1.77;;;17.20;80.50;;;;;;4079557;28;20058;-50
2024/02/14 11:47:51;;;;;;;2.70;1.92;;;17.30;80.20;;;;;;4091591;28;20396;-53
2024/02/14 11:50:32;;;;;;;3.15;1.95;;;17.30;80.00;;;;;;4091290;28;20186;-52
2024/02/14 11:53:16;;;;;;;2.25;2.05;;;17.30;79.90;;;;;;4091034;28;20054;-49
2024/02/14 11:55:58;;;;;;;2.40;2.20;;;17.30;79.80;;;;;;4091175;28;20114;-49
2024/02/14 11:58:39;;;;;;;1.80;1.70;;;17.40;80.00;;;;;;4090928;28;20405;-52
2024/02/14 12:01:20;;;;;;;1.67;1.58;;;17.30;80.20;;;;;;4090412;28;20058;-51
2024/02/14 12:04:03;;;;;;;1.83;1.65;;;17.20;80.40;;;;;;4090659;28;20380;-53
2024/02/14 12:06:44;;;;;;;1.70;1.60;;;17.20;80.60;;;;;;4090326;28;20416;-55
2024/02/14 12:09:27;;;;;;;2.03;1.73;;;17.10;80.80;;;;;;4090213;28;20070;-52
2024/02/14 12:12:10;;;;;;;1.65;1.55;;;17.10;80.90;;;;;;4090242;28;20054;-52
2024/02/14 12:14:53;;;;;;;2.38;2.28;;;17.10;81.20;;;;;;4090512;28;20143;-53
2024/02/14 12:17:35;;;;;;;1.80;1.70;;;17.00;81.30;;;;;;4090354;28;20141;-51
2024/02/14 12:20:16;;;;;;;2.00;1.90;;;17.10;81.40;;;;;;4090010;28;20144;-52
2024/02/14 12:22:57;;;;;;;1.95;1.85;;;17.10;81.50;;;;;;4078391;28;20054;-54
2024/02/14 12:25:40;;;;;;;1.70;1.70;;;17.00;81.40;;;;;;4090873;28;20058;-52
2024/02/14 12:28:23;;;;;;;1.70;1.60;;;17.00;81.80;;;;;;4090856;28;20086;-50
2024/02/14 12:31:05;;;;;;;1.67;1.60;;;17.00;81.90;;;;;;4090461;28;20114;-37
2024/02/14 12:33:46;;;;;;;;;;;17.10;81.70;;;;;;4090458;28;20051;-37
2024/02/14 12:36:29;;;;;;;2.00;1.90;;;17.20;81.20;;;;;;4090638;28;19929;-38
2024/02/14 12:39:12;;;;;;;;;;;17.20;80.80;;;;;;4091011;28;20523;-37
2024/02/14 12:41:54;;;;;;;2.30;2.20;;;17.30;80.70;;;;;;4090514;28;20274;-37
2024/02/14 12:44:35;;;;;;;1.88;1.77;;;17.30;80.60;;;;;;4074546;29;20054;-38
2024/02/14 12:47:17;;;;;;;2.45;2.35;;;17.20;80.70;;;;;;4074558;29;20063;-37
2024/02/14 12:49:59;;;;;;;2.67;2.47;;;17.20;80.80;;;;;;4074744;29;20067;-37
2024/02/14 12:52:40;;;;;;;;;;;17.10;81.00;;;;;;4063418;29;20059;-38
2024/02/14 12:55:23;;;;;;;2.67;2.47;;;17.10;81.10;;;;;;4074744;29;19929;-37
2024/02/14 12:58:05;;;;;;;2.58;2.47;;;17.10;81.10;;;;;;4074510;29;20366;-37
2024/02/14 13:00:47;;;;;;;3.60;2.88;;;17.10;81.20;;;;;;4086543;28;20101;-37
2024/02/14 13:03:28;;;;;;;2.88;2.78;;;17.10;81.20;;;;;;4090263;28;20054;-38
2024/02/14 13:06:10;;;;;;;3.28;3.00;;;17.10;81.50;;;;;;4090311;28;20074;-38
2024/02/14 13:08:51;;;;;;;3.60;3.30;;;17.10;81.50;;;;;;4077792;28;20050;-37
2024/02/14 13:11:32;;;;;;;3.33;2.75;;;17.20;81.30;;;;;;4089737;28;20049;-38
2024/02/14 13:14:14;;;;;;;2.90;2.80;;;17.20;81.00;;;;;;4089911;28;20062;-38
2024/02/14 13:16:55;;;;;;;3.10;2.90;;;17.30;80.90;;;;;;4089808;28;20050;-38
2024/02/14 13:19:36;;;;;;;2.92;2.83;;;17.20;80.80;;;;;;4089270;28;20062;-37
2024/02/14 13:22:17;;;;;;;2.95;2.75;;;17.20;80.90;;;;;;4089495;28;20055;-38
2024/02/14 13:25:00;;;;;;;2.58;2.35;;;17.20;81.00;;;;;;4089997;28;20555;-38
2024/02/14 13:27:41;;;;;;;2.47;2.38;;;17.20;81.30;;;;;;4089473;28;20086;-37
2024/02/14 13:30:24;;;;;;;2.53;2.42;;;17.10;82.10;;;;;;4089864;28;20070;-38
2024/02/14 13:33:05;;;;;;;2.85;2.75;;;17.20;81.20;;;;;;4077813;28;20119;-37
2024/02/14 13:35:46;;;;;;;2.70;2.60;;;17.20;81.20;;;;;;4089201;28;20130;-37
2024/02/14 13:38:28;;;;;;;2.63;2.42;;;17.20;81.10;;;;;;4089283;28;20527;-37
2024/02/14 13:41:11;;;;;;;2.45;2.25;;;17.20;81.10;;;;;;4089097;28;20050;-38
2024/02/14 13:43:53;;;;;;;2.83;2.60;;;17.10;81.20;;;;;;4077078;28;20106;-37
2024/02/14 13:46:36;;;;;;;2.60;2.50;;;17.20;81.60;;;;;;4088907;28;20786;-38
2024/02/14 13:49:21;;;;;;;3.47;2.88;;;17.20;81.30;;;;;;4077744;28;20070;-38
2024/02/14 13:52:02;;;;;;;3.00;2.80;;;17.30;81.10;;;;;;4062754;29;20119;-51
2024/02/14 13:54:43;;;;;;;2.97;2.78;;;17.30;80.80;;;;;;4089005;28;20227;-53
2024/02/14 13:57:24;;;;;;;3.20;2.97;;;17.30;80.80;;;;;;4088990;28;20105;-53
2024/02/14 14:00:09;;;;;;;2.85;2.65;;;17.30;80.90;;;;;;4088771;28;20054;-53
2024/02/14 14:02:55;;;;;;;2.50;2.40;;;17.20;81.00;;;;;;4073019;29;20054;-48
2024/02/14 14:05:36;;;;;;;3.10;2.80;;;17.20;81.20;;;;;;4073394;29;20054;-49
2024/02/14 14:08:18;;;;;;;2.67;2.58;;;17.20;81.40;;;;;;4073286;29;20062;-53
2024/02/14 14:10:59;;;;;;;3.75;3.40;;;17.20;81.40;;;;;;4084304;28;20062;-53